FFT Airport (Capital City) Information

FAA: FFT - ICAO: KFFT

FFT Airport Location

State Kentucky
County Franklin
City Frankfort
FFT Airport is 1 mile southwest of Frankfort, KY.
Latitude 38-10-54.2341N
Longitude 084-54-24.2992W
Elevation 812ft

KFFT Airport METARs

METAR KFFT 032253Z AUTO 00000KT 10SM CLR 14/08 A2992 RMK AO2 SLP132 T01390078
Altimeter 29.92"
Temperature 13.9°C (57.0°F)
Wind 0° at 0KT
Clouds Skies are clear.
Visibility 10.0mi
Time observed: 2021-12-03T22:53:00Z

FFT Airport Details

Status Operational
Activation July 1954
Ownership Public
Usage Public
Chart CINCINNATI
ATC on-site No
Beacon schedule sunset-sunrise
Beacon color clear green

FFT Airport Contacts

Owner COMMONWEALTH OF KENTUCKY
Owner address 90 AIRPORT RD, FRANKFORT, KY 40601
Owner phone 502-564-3714
Manager MICHAEL RICKS, PARK MANAGER
Manager address 450 LODGE ROAD, FALLS OF ROUGH, KY 40119
Manager phone 270-257-2311

FFT Airport (Capital City) Radio Frequencies

FFT (Airport) Radio Frequencies

UNICOM 122.8
Common traffic advisory frequency (CTAF) 122.8